createdAt,value
2023-03-12T00:01:13.916Z,62.41
2023-03-12T00:03:40.556Z,62.19
2023-03-12T00:06:10.838Z,62.07
2023-03-12T00:08:37.441Z,61.87
2023-03-12T00:11:14.451Z,61.70
2023-03-12T00:13:40.792Z,61.42
2023-03-12T00:16:14.428Z,61.40
2023-03-12T00:18:41.364Z,61.09
2023-03-12T00:21:08.141Z,61.05
2023-03-12T00:23:34.991Z,60.72
2023-03-12T00:26:06.760Z,60.19
2023-03-12T00:28:33.090Z,60.64
2023-03-12T00:30:59.505Z,60.61
2023-03-12T00:33:28.196Z,60.64
2023-03-12T00:35:54.989Z,60.74
2023-03-12T00:38:21.335Z,60.39
2023-03-12T00:40:47.644Z,60.45
2023-03-12T00:43:14.263Z,60.72
2023-03-12T00:45:40.612Z,60.75
2023-03-12T00:48:07.251Z,60.66
2023-03-12T00:50:33.550Z,60.60
2023-03-12T00:53:00.030Z,60.66
2023-03-12T00:55:26.352Z,60.29
2023-03-12T00:57:52.660Z,60.19
2023-03-12T01:00:19.109Z,60.40
2023-03-12T01:02:45.472Z,60.38
2023-03-12T01:05:12.706Z,60.26
2023-03-12T01:07:39.952Z,60.09
2023-03-12T01:10:06.953Z,60.13
2023-03-12T01:12:33.253Z,60.13
2023-03-12T01:14:59.581Z,59.69
2023-03-12T01:17:25.898Z,59.80
2023-03-12T01:19:52.366Z,59.40
2023-03-12T01:22:18.694Z,58.96
2023-03-12T01:24:44.975Z,58.75
2023-03-12T01:27:11.228Z,57.83
2023-03-12T01:29:37.510Z,57.93
2023-03-12T01:32:03.863Z,57.53
2023-03-12T01:34:30.725Z,57.35
2023-03-12T01:36:57.289Z,57.32
2023-03-12T01:39:25.628Z,57.25
2023-03-12T01:41:51.993Z,57.02
2023-03-12T01:44:18.273Z,56.96
2023-03-12T01:46:45.898Z,56.93
2023-03-12T01:49:17.629Z,56.88
2023-03-12T01:51:43.900Z,56.53
2023-03-12T01:54:30.430Z,56.76
2023-03-12T01:56:57.208Z,56.61
2023-03-12T01:59:25.459Z,56.78
2023-03-12T02:01:52.568Z,56.83
2023-03-12T02:04:21.102Z,56.74
2023-03-12T02:06:53.290Z,56.66
2023-03-12T02:09:20.313Z,56.90
2023-03-12T02:11:46.738Z,56.86
2023-03-12T02:14:13.405Z,56.83
2023-03-12T02:16:40.103Z,56.85
2023-03-12T02:19:11.211Z,56.87
2023-03-12T02:21:38.521Z,56.83
2023-03-12T02:24:07.768Z,57.05
2023-03-12T02:26:35.800Z,56.96
2023-03-12T02:29:02.125Z,57.16
2023-03-12T02:31:40.769Z,57.29
2023-03-12T02:34:07.064Z,57.22
2023-03-12T02:36:33.505Z,57.14
2023-03-12T02:38:59.794Z,57.38
2023-03-12T02:41:31.405Z,57.28
2023-03-12T02:44:04.001Z,57.53
2023-03-12T02:46:33.767Z,57.62
2023-03-12T02:49:01.023Z,57.75
2023-03-12T02:51:27.343Z,57.72
2023-03-12T02:53:54.960Z,57.61
2023-03-12T02:56:26.154Z,57.53
2023-03-12T02:58:52.524Z,57.67
2023-03-12T03:01:18.912Z,57.61
2023-03-12T03:03:45.458Z,57.71
2023-03-12T03:06:12.145Z,57.63
2023-03-12T03:08:38.576Z,57.62
2023-03-12T03:11:05.194Z,57.50
2023-03-12T03:13:31.477Z,57.41
2023-03-12T03:15:59.790Z,57.47
2023-03-12T03:18:26.371Z,57.41
2023-03-12T03:21:14.325Z,57.49
2023-03-12T03:23:40.628Z,57.14
2023-03-12T03:26:06.882Z,57.50
2023-03-12T03:28:33.159Z,57.40
2023-03-12T03:31:01.711Z,57.53
2023-03-12T03:33:28.401Z,57.46
2023-03-12T03:35:55.548Z,57.33
2023-03-12T03:38:22.994Z,57.44
2023-03-12T03:40:49.255Z,57.57
2023-03-12T03:43:15.718Z,57.52
2023-03-12T03:45:44.691Z,57.77
2023-03-12T03:48:11.889Z,57.79
2023-03-12T03:50:39.024Z,57.51
2023-03-12T03:53:06.188Z,57.61
2023-03-12T03:55:35.527Z,57.60
2023-03-12T03:58:01.792Z,57.51
2023-03-12T04:00:28.095Z,57.49
2023-03-12T04:02:55.392Z,57.67
2023-03-12T04:05:21.901Z,57.34
2023-03-12T04:07:48.404Z,57.41
2023-03-12T04:10:14.700Z,57.51
2023-03-12T04:12:41.056Z,57.68
2023-03-12T04:15:07.596Z,58.02
2023-03-12T04:17:33.884Z,58.37
2023-03-12T04:20:00.253Z,59.09
2023-03-12T04:22:29.121Z,60.04
2023-03-12T04:24:55.620Z,60.87
2023-03-12T04:27:24.987Z,60.91
2023-03-12T04:29:51.306Z,61.58
2023-03-12T04:32:17.603Z,62.37
2023-03-12T04:34:43.941Z,63.83
2023-03-12T04:37:16.485Z,64.02
2023-03-12T04:39:43.973Z,65.09
2023-03-12T04:42:10.468Z,65.86
2023-03-12T04:44:36.827Z,67.06
2023-03-12T04:47:03.769Z,68.46
2023-03-12T04:49:31.956Z,68.72
2023-03-12T04:51:58.408Z,69.09
2023-03-12T04:54:24.736Z,70.01
2023-03-12T04:56:51.082Z,70.79
2023-03-12T04:59:17.426Z,71.83
2023-03-12T05:01:44.022Z,72.08
2023-03-12T05:04:10.515Z,72.17
2023-03-12T05:06:36.941Z,72.20
2023-03-12T05:09:03.977Z,72.77
2023-03-12T05:11:30.258Z,73.01
2023-03-12T05:13:56.660Z,73.42
2023-03-12T05:16:23.081Z,73.62
2023-03-12T05:18:49.409Z,74.02
2023-03-12T05:21:17.111Z,73.92
2023-03-12T05:23:44.404Z,74.61
2023-03-12T05:26:16.730Z,74.84
2023-03-12T05:28:43.061Z,75.31
2023-03-12T05:31:10.581Z,75.32
2023-03-12T05:33:40.096Z,75.36
2023-03-12T05:36:06.802Z,75.44
2023-03-12T05:38:33.198Z,75.86
2023-03-12T05:40:59.999Z,76.54
2023-03-12T05:43:26.758Z,76.63
2023-03-12T05:45:53.190Z,77.04
2023-03-12T05:48:19.911Z,77.33
2023-03-12T05:50:46.211Z,77.91
2023-03-12T05:53:12.702Z,78.38
2023-03-12T05:55:39.655Z,79.38
2023-03-12T05:58:06.927Z,79.38
2023-03-12T06:00:35.752Z,79.18
2023-03-12T06:03:02.098Z,79.44
2023-03-12T06:05:28.490Z,79.74
2023-03-12T06:07:54.860Z,80.36
2023-03-12T06:10:21.186Z,80.34
2023-03-12T06:12:47.674Z,80.73
2023-03-12T06:15:13.998Z,80.99
2023-03-12T06:17:40.284Z,81.19
2023-03-12T06:20:07.133Z,81.66
2023-03-12T06:22:33.735Z,83.53
2023-03-12T06:25:00.077Z,84.02
2023-03-12T06:27:26.418Z,83.96
2023-03-12T06:29:52.747Z,83.96
2023-03-12T06:32:19.098Z,84.30
2023-03-12T06:34:47.621Z,84.97
2023-03-12T06:37:13.862Z,85.76
2023-03-12T06:39:40.218Z,86.18
2023-03-12T06:42:06.719Z,86.58
2023-03-12T06:44:33.143Z,87.08
2023-03-12T06:46:59.563Z,87.71
2023-03-12T06:49:27.381Z,88.98
2023-03-12T06:51:53.832Z,89.70
2023-03-12T06:54:20.228Z,89.53
2023-03-12T06:56:47.777Z,90.25
2023-03-12T06:59:14.112Z,90.28
2023-03-12T07:01:40.462Z,90.55
2023-03-12T07:04:06.788Z,90.52
2023-03-12T07:06:33.244Z,91.05
2023-03-12T07:08:59.538Z,90.98
2023-03-12T07:11:25.891Z,91.52
2023-03-12T07:13:52.214Z,91.70
2023-03-12T07:16:18.851Z,91.57
2023-03-12T07:18:45.231Z,91.46
2023-03-12T07:21:11.575Z,91.88
2023-03-12T07:23:37.951Z,91.94
2023-03-12T07:26:05.494Z,92.03
2023-03-12T07:28:31.839Z,92.04
2023-03-12T07:31:01.850Z,92.31
2023-03-12T07:33:28.313Z,93.12
2023-03-12T07:35:54.815Z,93.32
2023-03-12T07:38:21.244Z,93.20
2023-03-12T07:40:54.665Z,93.13
2023-03-12T07:43:21.821Z,93.10
2023-03-12T07:45:48.812Z,93.17
2023-03-12T07:48:15.602Z,93.42
2023-03-12T07:50:42.129Z,93.49
2023-03-12T07:53:08.554Z,93.73
2023-03-12T07:55:35.302Z,93.66
2023-03-12T07:58:01.673Z,93.77
2023-03-12T08:00:28.381Z,93.79
2023-03-12T08:02:55.036Z,93.87
2023-03-12T08:05:24.729Z,94.07
2023-03-12T08:07:52.344Z,94.20
2023-03-12T08:10:18.898Z,94.34
2023-03-12T08:12:45.396Z,94.38
2023-03-12T08:15:12.858Z,94.81
2023-03-12T08:17:39.434Z,94.85
2023-03-12T08:20:09.357Z,94.91
2023-03-12T08:22:36.914Z,95.01
2023-03-12T08:25:05.156Z,95.09
2023-03-12T08:27:31.485Z,95.26
2023-03-12T08:29:57.859Z,95.39
2023-03-12T08:32:24.501Z,95.61
2023-03-12T08:34:50.952Z,95.92
2023-03-12T08:37:17.778Z,96.05
2023-03-12T08:39:44.866Z,96.13
2023-03-12T08:42:11.213Z,95.94
2023-03-12T08:44:37.579Z,95.93
2023-03-12T08:47:03.972Z,95.93
2023-03-12T08:49:30.231Z,95.80
2023-03-12T08:51:56.984Z,96.47
2023-03-12T08:54:23.666Z,96.29
2023-03-12T08:56:53.072Z,96.33
2023-03-12T08:59:20.581Z,96.20
2023-03-12T09:01:47.067Z,96.30
2023-03-12T09:04:13.473Z,96.67
2023-03-12T09:06:40.636Z,96.66
2023-03-12T09:09:08.983Z,96.88
2023-03-12T09:11:36.280Z,96.96
2023-03-12T09:16:49.241Z,97.05
2023-03-12T09:19:15.987Z,97.24
2023-03-12T09:21:42.559Z,96.91
2023-03-12T09:24:09.867Z,97.17
2023-03-12T09:26:36.165Z,97.33
2023-03-12T09:29:02.589Z,97.78
2023-03-12T09:31:28.916Z,97.88
2023-03-12T09:33:55.292Z,98.80
2023-03-12T09:36:21.595Z,98.78
2023-03-12T09:38:47.977Z,98.88
2023-03-12T09:41:17.433Z,98.67
2023-03-12T09:43:47.571Z,99.12
2023-03-12T09:46:17.882Z,99.42
2023-03-12T09:48:47.538Z,99.41
2023-03-12T09:51:17.216Z,99.62
2023-03-12T09:53:49.008Z,100.00
2023-03-12T09:56:17.543Z,100.00
2023-03-12T09:58:48.044Z,100.00
2023-03-12T10:01:33.436Z,100.00
2023-03-12T10:04:08.931Z,100.00
2023-03-12T10:06:39.249Z,100.00
2023-03-12T10:09:11.457Z,100.00
2023-03-12T10:12:07.175Z,100.00
2023-03-12T10:14:39.396Z,100.00
2023-03-12T10:17:21.527Z,100.00
2023-03-12T10:19:50.596Z,100.00
2023-03-12T10:22:28.180Z,100.00
2023-03-12T10:24:57.550Z,100.00
2023-03-12T10:27:26.694Z,100.00
2023-03-12T10:29:53.462Z,100.00
2023-03-12T10:32:22.402Z,100.00
2023-03-12T10:34:56.206Z,100.00
2023-03-12T10:37:24.802Z,100.00
2023-03-12T10:39:51.772Z,100.00
2023-03-12T10:42:19.493Z,100.00
2023-03-12T10:44:47.295Z,100.00
2023-03-12T10:47:21.585Z,100.00
2023-03-12T10:49:50.525Z,100.00
2023-03-12T10:52:17.691Z,100.00
2023-03-12T10:54:45.669Z,100.00
2023-03-12T10:57:18.686Z,100.00
2023-03-12T10:59:47.699Z,100.00
2023-03-12T11:02:31.945Z,100.00
2023-03-12T11:04:58.863Z,100.00
2023-03-12T11:07:28.175Z,100.00
2023-03-12T11:10:06.366Z,100.00
2023-03-12T11:12:36.012Z,100.00
2023-03-12T11:15:19.277Z,100.00
2023-03-12T11:17:45.605Z,100.00
2023-03-12T11:20:18.975Z,100.00
2023-03-12T11:22:45.288Z,100.00
2023-03-12T11:25:20.234Z,100.00
2023-03-12T11:27:49.544Z,100.00
2023-03-12T11:30:17.683Z,100.00
2023-03-12T11:32:45.934Z,100.00
2023-03-12T11:35:13.272Z,100.00
2023-03-12T11:37:40.562Z,100.00
2023-03-12T11:40:25.620Z,100.00
2023-03-12T11:43:04.845Z,100.00
2023-03-12T11:45:34.214Z,100.00
2023-03-12T11:48:06.923Z,100.00
2023-03-12T11:50:35.943Z,100.00
2023-03-12T11:53:02.175Z,100.00
2023-03-12T11:55:28.487Z,100.00
2023-03-12T11:57:54.790Z,100.00
2023-03-12T12:00:23.006Z,100.00
2023-03-12T12:03:11.741Z,100.00
2023-03-12T12:05:56.784Z,100.00
2023-03-12T12:08:28.494Z,100.00
2023-03-12T12:11:03.002Z,100.00
2023-03-12T12:13:43.314Z,100.00
2023-03-12T12:16:17.508Z,100.00
2023-03-12T12:18:46.642Z,99.66
2023-03-12T12:21:26.124Z,99.50
2023-03-12T12:24:12.729Z,99.51
2023-03-12T12:26:39.238Z,99.45
2023-03-12T12:29:12.137Z,99.09
2023-03-12T12:31:49.040Z,99.00
2023-03-12T12:34:18.121Z,98.52
2023-03-12T12:36:48.027Z,98.25
2023-03-12T12:39:24.033Z,98.02
2023-03-12T12:41:56.535Z,97.68
2023-03-12T12:44:26.988Z,96.68
2023-03-12T12:46:55.443Z,96.48
2023-03-12T12:49:36.114Z,96.31
2023-03-12T12:52:04.964Z,96.31
2023-03-12T12:54:34.265Z,96.60
2023-03-12T12:57:04.974Z,96.18
2023-03-12T12:59:52.998Z,95.33
2023-03-12T13:02:20.654Z,95.40
2023-03-12T13:04:48.177Z,94.70
2023-03-12T13:07:14.432Z,94.75
2023-03-12T13:09:44.900Z,94.25
2023-03-12T13:12:20.077Z,94.22
2023-03-12T13:14:47.015Z,94.56
2023-03-12T13:17:25.312Z,93.90
2023-03-12T13:20:00.967Z,93.48
2023-03-12T13:22:38.973Z,93.20
2023-03-12T13:25:17.385Z,92.79
2023-03-12T13:27:44.869Z,92.70
2023-03-12T13:30:29.854Z,92.88
2023-03-12T13:33:02.108Z,92.36
2023-03-12T13:35:38.030Z,92.30
2023-03-12T13:38:18.192Z,91.62
2023-03-12T13:40:55.815Z,90.87
2023-03-12T13:43:33.284Z,90.57
2023-03-12T13:45:59.667Z,89.97
2023-03-12T13:48:26.212Z,89.89
2023-03-12T13:50:58.712Z,89.90
2023-03-12T13:53:35.406Z,88.60
2023-03-12T13:56:04.260Z,88.45
2023-03-12T13:58:31.028Z,87.65
2023-03-12T14:01:02.571Z,85.63
2023-03-12T14:03:35.102Z,85.40
2023-03-12T14:06:09.194Z,83.06
2023-03-12T14:08:40.508Z,83.38
2023-03-12T14:11:09.675Z,82.08
2023-03-12T14:13:54.827Z,81.97
2023-03-12T14:16:27.360Z,79.83
2023-03-12T14:18:53.865Z,77.78
2023-03-12T14:21:21.832Z,77.82
2023-03-12T14:23:58.770Z,75.99
2023-03-12T14:26:28.082Z,76.94
2023-03-12T14:29:15.204Z,76.84
2023-03-12T14:31:42.295Z,77.04
2023-03-12T14:34:08.612Z,74.58
2023-03-12T14:36:58.386Z,73.20
2023-03-12T14:39:41.620Z,74.08
2023-03-12T14:42:08.910Z,74.47
2023-03-12T14:44:37.054Z,73.28
2023-03-12T14:47:07.434Z,71.85
2023-03-12T14:49:39.423Z,72.03
2023-03-12T14:52:05.904Z,72.74
2023-03-12T14:54:32.480Z,72.97
2023-03-12T14:56:58.823Z,72.97
2023-03-12T14:59:27.851Z,70.81
2023-03-12T15:01:58.649Z,71.30
2023-03-12T15:04:25.380Z,71.14
2023-03-12T15:06:57.226Z,71.79
2023-03-12T15:09:28.382Z,71.88
2023-03-12T15:11:59.630Z,72.20
2023-03-12T15:14:32.257Z,72.31
2023-03-12T15:17:00.401Z,72.47
2023-03-12T15:19:31.250Z,72.56
2023-03-12T15:21:57.858Z,72.98
2023-03-12T15:24:24.461Z,73.52
2023-03-12T15:26:50.909Z,74.31
2023-03-12T15:29:26.397Z,74.97
2023-03-12T15:31:59.888Z,75.27
2023-03-12T15:34:31.964Z,75.85
2023-03-12T15:36:59.533Z,76.59
2023-03-12T15:39:27.605Z,76.96
2023-03-12T15:41:54.718Z,76.92
2023-03-12T15:44:21.053Z,77.09
2023-03-12T15:46:52.294Z,77.07
2023-03-12T15:49:21.447Z,77.23
2023-03-12T15:52:24.751Z,77.27
2023-03-12T15:54:59.878Z,77.24
2023-03-12T15:57:26.183Z,77.46
2023-03-12T16:00:12.750Z,77.64
2023-03-12T16:02:46.182Z,77.93
2023-03-12T16:05:12.817Z,78.03
2023-03-12T16:07:39.180Z,78.27
2023-03-12T16:10:07.033Z,78.31
2023-03-12T16:12:38.721Z,78.21
2023-03-12T16:15:05.243Z,78.61
2023-03-12T16:17:31.569Z,78.56
2023-03-12T16:19:57.864Z,78.79
2023-03-12T16:22:24.237Z,78.88
2023-03-12T16:24:50.518Z,79.01
2023-03-12T16:27:23.746Z,79.01
2023-03-12T16:29:58.284Z,79.07
2023-03-12T16:32:24.677Z,79.53
2023-03-12T16:34:50.983Z,79.65
2023-03-12T16:37:17.388Z,79.68
2023-03-12T16:39:46.331Z,80.08
2023-03-12T16:42:17.229Z,80.43
2023-03-12T16:44:47.213Z,80.37
2023-03-12T16:47:14.035Z,80.33
2023-03-12T16:49:40.486Z,80.39
2023-03-12T16:52:20.246Z,80.88
2023-03-12T16:54:48.525Z,80.94
2023-03-12T16:57:21.047Z,81.18
2023-03-12T16:59:47.458Z,81.14
2023-03-12T17:02:17.985Z,81.63
2023-03-12T17:04:45.812Z,81.43
2023-03-12T17:07:12.642Z,81.65
2023-03-12T17:09:38.907Z,81.99
2023-03-12T17:12:06.274Z,81.98
2023-03-12T17:14:33.354Z,82.38
2023-03-12T17:16:59.695Z,82.44
2023-03-12T17:19:26.097Z,82.70
2023-03-12T17:21:52.623Z,82.67
2023-03-12T17:24:19.047Z,82.88
2023-03-12T17:26:46.448Z,83.02
2023-03-12T17:29:12.777Z,83.17
2023-03-12T17:31:39.076Z,83.20
2023-03-12T17:34:05.492Z,83.48
2023-03-12T17:36:31.768Z,83.77
2023-03-12T17:38:58.545Z,83.93
2023-03-12T17:41:26.983Z,84.36
2023-03-12T17:43:54.617Z,84.82
2023-03-12T17:46:20.982Z,84.87
2023-03-12T17:48:47.342Z,85.20
2023-03-12T17:51:13.822Z,85.33
2023-03-12T17:53:41.704Z,85.55
2023-03-12T17:56:08.042Z,85.71
2023-03-12T17:58:34.484Z,86.02
2023-03-12T18:01:00.869Z,86.10
2023-03-12T18:03:27.236Z,86.11
2023-03-12T18:05:53.612Z,86.26
2023-03-12T18:08:23.078Z,86.47
2023-03-12T18:10:49.555Z,86.65
2023-03-12T18:13:16.051Z,86.66
2023-03-12T18:15:42.368Z,86.69
2023-03-12T18:18:08.854Z,87.04
2023-03-12T18:20:39.304Z,86.85
2023-03-12T18:23:07.265Z,86.76
2023-03-12T18:25:33.619Z,86.98
2023-03-12T18:27:59.941Z,87.43
2023-03-12T18:30:28.098Z,86.99
2023-03-12T18:32:54.517Z,86.68
2023-03-12T18:35:22.172Z,86.46
2023-03-12T18:37:48.572Z,86.68
2023-03-12T18:40:14.876Z,86.60
2023-03-12T18:42:44.456Z,86.59
2023-03-12T18:45:11.712Z,86.64
2023-03-12T18:47:39.659Z,86.79
2023-03-12T18:50:06.653Z,86.77
2023-03-12T18:52:32.949Z,86.66
2023-03-12T18:54:59.443Z,86.68
2023-03-12T18:57:25.726Z,87.04
2023-03-12T18:59:52.110Z,87.09
2023-03-12T19:02:18.436Z,87.05
2023-03-12T19:04:44.858Z,87.36
2023-03-12T19:07:11.351Z,87.32
2023-03-12T19:09:37.684Z,87.31
2023-03-12T19:12:05.971Z,87.51
2023-03-12T19:14:32.321Z,87.61
2023-03-12T19:16:58.586Z,87.80
2023-03-12T19:19:25.068Z,87.41
2023-03-12T19:21:51.502Z,87.60
2023-03-12T19:24:17.893Z,87.77
2023-03-12T19:26:44.230Z,88.09
2023-03-12T19:29:10.665Z,88.37
2023-03-12T19:31:37.019Z,88.58
2023-03-12T19:34:03.375Z,88.77
2023-03-12T19:36:29.642Z,89.10
2023-03-12T19:38:55.956Z,89.05
2023-03-12T19:41:22.270Z,89.26
2023-03-12T19:43:48.689Z,89.16
2023-03-12T19:46:15.027Z,89.52
2023-03-12T19:48:41.424Z,89.80
2023-03-12T19:51:08.615Z,89.73
2023-03-12T19:53:35.062Z,89.59
2023-03-12T19:56:01.436Z,89.61
2023-03-12T19:58:28.094Z,89.49
2023-03-12T20:00:54.428Z,89.51
2023-03-12T20:03:22.190Z,89.27
2023-03-12T20:05:50.337Z,89.12
2023-03-12T20:08:16.695Z,89.17
2023-03-12T20:10:43.113Z,88.77
2023-03-12T20:13:12.793Z,88.90
2023-03-12T20:15:40.085Z,88.43
2023-03-12T20:18:06.427Z,88.32
2023-03-12T20:20:34.503Z,88.23
2023-03-12T20:23:00.850Z,87.89
2023-03-12T20:25:27.171Z,87.85
2023-03-12T20:27:56.234Z,87.80
2023-03-12T20:30:22.548Z,87.81
2023-03-12T20:32:49.004Z,87.69
2023-03-12T20:35:15.475Z,87.69
2023-03-12T20:37:41.956Z,87.74
2023-03-12T20:40:08.707Z,87.60
2023-03-12T20:42:35.258Z,87.60
2023-03-12T20:45:01.606Z,87.67
2023-03-12T20:47:28.055Z,87.69
2023-03-12T20:49:54.400Z,87.83
2023-03-12T20:52:20.705Z,88.17
2023-03-12T20:54:47.042Z,88.23
2023-03-12T20:57:13.328Z,88.62
2023-03-12T20:59:39.591Z,88.50
2023-03-12T21:02:05.942Z,88.27
2023-03-12T21:04:32.367Z,88.46
2023-03-12T21:06:58.665Z,88.56
2023-03-12T21:09:24.947Z,88.89
2023-03-12T21:11:51.409Z,89.06
2023-03-12T21:14:17.813Z,89.05
2023-03-12T21:16:44.176Z,89.26
2023-03-12T21:19:10.522Z,89.17
2023-03-12T21:21:37.924Z,89.40
2023-03-12T21:24:04.657Z,89.66
2023-03-12T21:26:31.130Z,89.41
2023-03-12T21:28:57.492Z,89.54
2023-03-12T21:31:23.894Z,89.59
2023-03-12T21:33:53.598Z,89.44
2023-03-12T21:36:19.996Z,89.73
2023-03-12T21:38:46.291Z,89.62
2023-03-12T21:41:14.232Z,89.48
2023-03-12T21:43:40.890Z,89.66
2023-03-12T21:46:08.147Z,89.63
2023-03-12T21:48:34.759Z,89.73
2023-03-12T21:51:02.652Z,89.61
2023-03-12T21:53:28.956Z,89.61
2023-03-12T21:55:59.138Z,89.47
2023-03-12T21:58:25.882Z,89.48
2023-03-12T22:00:52.297Z,89.27
2023-03-12T22:03:18.741Z,89.23
2023-03-12T22:05:50.411Z,89.54
2023-03-12T22:08:16.846Z,89.41
2023-03-12T22:10:46.040Z,89.78
2023-03-12T22:13:12.333Z,89.63
2023-03-12T22:15:38.951Z,89.69
2023-03-12T22:18:05.305Z,89.49
2023-03-12T22:20:34.132Z,89.15
2023-03-12T22:23:00.822Z,89.58
2023-03-12T22:25:27.168Z,89.50
2023-03-12T22:27:53.434Z,89.49
2023-03-12T22:30:19.932Z,89.31
2023-03-12T22:32:46.300Z,89.42
2023-03-12T22:35:12.684Z,89.99
2023-03-12T22:37:38.979Z,90.08
2023-03-12T22:40:07.166Z,90.20
2023-03-12T22:42:33.905Z,90.35
2023-03-12T22:45:00.178Z,90.63
2023-03-12T22:47:26.684Z,90.83
2023-03-12T22:49:53.139Z,91.27
2023-03-12T22:52:19.490Z,91.65
2023-03-12T22:54:45.967Z,91.97
2023-03-12T22:57:12.325Z,92.08
2023-03-12T22:59:38.702Z,92.29
2023-03-12T23:02:05.072Z,92.53
2023-03-12T23:04:31.504Z,92.38
2023-03-12T23:07:13.756Z,92.95
2023-03-12T23:09:41.576Z,93.43
2023-03-12T23:12:08.377Z,94.00
2023-03-12T23:14:34.836Z,94.09
2023-03-12T23:17:01.114Z,94.08
2023-03-12T23:19:31.393Z,94.06
2023-03-12T23:21:57.694Z,94.20
2023-03-12T23:24:24.035Z,94.52
2023-03-12T23:26:50.410Z,94.90
2023-03-12T23:29:16.802Z,95.08
2023-03-12T23:31:43.148Z,95.17
2023-03-12T23:34:12.624Z,95.69
2023-03-12T23:36:39.109Z,96.11
2023-03-12T23:39:05.713Z,96.26
2023-03-12T23:41:32.069Z,95.98
2023-03-12T23:43:58.881Z,96.36
2023-03-12T23:46:27.208Z,96.53
2023-03-12T23:48:53.974Z,96.54
2023-03-12T23:51:21.863Z,96.94
2023-03-12T23:53:50.010Z,96.78
2023-03-12T23:56:20.726Z,97.00
2023-03-12T23:58:49.807Z,97.11
